createdAt,value
2022-12-23T00:01:30.601Z,97012.38
2022-12-23T00:04:00.339Z,97010.50
2022-12-23T00:06:28.386Z,97021.25
2022-12-23T00:08:58.824Z,97022.59
2022-12-23T00:11:30.119Z,97022.59
2022-12-23T00:14:20.986Z,97029.03
2022-12-23T00:16:51.344Z,97023.13
2022-12-23T00:19:19.453Z,97020.44
2022-12-23T00:21:48.519Z,97026.06
2022-12-23T00:24:16.845Z,97010.50
2022-12-23T00:26:46.526Z,97012.09
2022-12-23T00:29:14.888Z,97023.66
2022-12-23T00:31:43.142Z,97012.91
2022-12-23T00:34:12.511Z,97014.25
2022-12-23T00:36:41.305Z,97014.00
2022-12-23T00:39:30.061Z,97017.22
2022-12-23T00:42:17.306Z,97007.28
2022-12-23T00:44:46.066Z,97004.84
2022-12-23T00:47:35.685Z,97005.38
2022-12-23T00:50:02.983Z,97014.78
2022-12-23T00:52:31.394Z,97023.13
2022-12-23T00:55:00.146Z,97025.53
2022-12-23T00:57:29.652Z,97023.13
2022-12-23T00:59:58.262Z,97029.03
2022-12-23T01:02:43.875Z,97027.44
2022-12-23T01:05:29.683Z,97028.75
2022-12-23T01:07:57.984Z,97020.97
2022-12-23T01:10:26.175Z,97037.09
2022-12-23T01:12:56.419Z,97030.38
2022-12-23T01:15:25.156Z,97038.16
2022-12-23T01:17:53.893Z,97036.81
2022-12-23T01:20:22.432Z,97032.25
2022-12-23T01:22:50.885Z,97037.63
2022-12-23T01:25:19.207Z,97038.44
2022-12-23T01:27:47.616Z,97042.19
2022-12-23T01:30:17.640Z,97030.91
2022-12-23T01:32:45.968Z,97038.16
2022-12-23T01:35:14.154Z,97047.31
2022-12-23T01:37:42.266Z,97056.97
2022-12-23T01:40:12.061Z,97052.41
2022-12-23T01:42:45.291Z,97048.38
2022-12-23T01:45:20.631Z,97050.81
2022-12-23T01:47:57.349Z,97058.88
2022-12-23T01:50:29.096Z,97057.78
2022-12-23T01:53:07.760Z,97057.78
2022-12-23T01:55:42.424Z,97056.44
2022-12-23T01:58:14.937Z,97070.41
2022-12-23T02:01:02.587Z,97065.31
2022-12-23T02:03:46.110Z,97060.97
2022-12-23T02:06:40.386Z,97069.84
2022-12-23T02:09:20.946Z,97074.41
2022-12-23T02:12:22.508Z,97079.78
2022-12-23T02:15:20.560Z,97087.56
2022-12-23T02:18:04.498Z,97087.03
2022-12-23T02:20:55.068Z,97089.72
2022-12-23T02:24:02.747Z,97094.56
2022-12-23T02:26:57.012Z,97109.88
2022-12-23T02:30:09.764Z,97104.78
2022-12-23T02:32:53.988Z,97102.88
2022-12-23T02:35:30.789Z,97113.91
2022-12-23T02:38:05.726Z,97112.56
2022-12-23T02:40:40.313Z,97108.00
2022-12-23T02:43:15.494Z,97121.97
2022-12-23T02:45:47.826Z,97117.16
2022-12-23T02:48:23.471Z,97120.66
2022-12-23T02:50:54.921Z,97128.72
2022-12-23T02:53:28.160Z,97136.81
2022-12-23T02:55:59.553Z,97146.22
2022-12-23T02:58:32.204Z,97135.47
2022-12-23T03:01:02.569Z,97134.91
2022-12-23T03:03:33.311Z,97140.84
2022-12-23T03:06:02.815Z,97147.03
2022-12-23T03:08:35.883Z,97142.19
2022-12-23T03:11:09.607Z,97138.97
2022-12-23T03:13:50.323Z,97152.16
2022-12-23T03:16:25.182Z,97148.91
2022-12-23T03:19:05.248Z,97148.13
2022-12-23T03:21:38.753Z,97160.47
2022-12-23T03:24:13.969Z,97159.69
2022-12-23T03:26:51.293Z,97169.63
2022-12-23T03:29:26.227Z,97166.13
2022-12-23T03:31:59.567Z,97168.28
2022-12-23T03:34:34.559Z,97164.50
2022-12-23T03:37:06.249Z,97170.44
2022-12-23T03:39:39.230Z,97179.56
2022-12-23T03:42:12.922Z,97176.88
2022-12-23T03:45:10.646Z,97181.19
2022-12-23T03:47:37.283Z,97178.78
2022-12-23T03:50:12.833Z,97191.16
2022-12-23T03:52:44.891Z,97190.59
2022-12-23T03:55:19.016Z,97193.56
2022-12-23T03:57:54.246Z,97194.34
2022-12-23T04:00:22.238Z,97199.75
2022-12-23T04:02:59.530Z,97202.44
2022-12-23T04:05:33.823Z,97211.84
2022-12-23T04:08:06.958Z,97211.59
2022-12-23T04:10:35.842Z,97208.88
2022-12-23T04:13:03.991Z,97214.53
2022-12-23T04:15:32.668Z,97208.59
2022-12-23T04:18:00.808Z,97210.50
2022-12-23T04:20:30.169Z,97213.44
2022-12-23T04:22:58.058Z,97208.06
2022-12-23T04:25:26.017Z,97209.16
2022-12-23T04:27:53.949Z,97211.56
2022-12-23T04:30:23.200Z,97212.09
2022-12-23T04:32:53.497Z,97212.94
2022-12-23T04:35:21.481Z,97229.34
2022-12-23T04:37:51.273Z,97220.19
2022-12-23T04:40:19.475Z,97223.41
2022-12-23T04:42:47.790Z,97229.88
2022-12-23T04:45:16.223Z,97227.19
2022-12-23T04:47:44.292Z,97226.38
2022-12-23T04:50:15.666Z,97233.66
2022-12-23T04:52:44.689Z,97231.22
2022-12-23T04:55:14.057Z,97224.78
2022-12-23T04:57:42.166Z,97233.66
2022-12-23T05:00:11.340Z,97241.19
2022-12-23T05:02:39.661Z,97243.09
2022-12-23T05:05:08.111Z,97242.28
2022-12-23T05:07:36.196Z,97248.75
2022-12-23T05:10:04.082Z,97253.03
2022-12-23T05:12:33.764Z,97253.84
2022-12-23T05:15:01.905Z,97260.31
2022-12-23T05:17:30.174Z,97263.00
2022-12-23T05:19:58.032Z,97263.53
2022-12-23T05:22:26.079Z,97258.69
2022-12-23T05:24:54.165Z,97266.22
2022-12-23T05:27:22.198Z,97262.19
2022-12-23T05:29:51.443Z,97258.69
2022-12-23T05:32:19.280Z,97273.22
2022-12-23T05:34:47.179Z,97275.38
2022-12-23T05:37:15.155Z,97269.47
2022-12-23T05:39:43.008Z,97273.22
2022-12-23T05:42:10.847Z,97267.84
2022-12-23T05:44:38.709Z,97272.97
2022-12-23T05:47:08.119Z,97272.16
2022-12-23T05:49:36.044Z,97273.22
2022-12-23T05:52:04.068Z,97279.16
2022-12-23T05:54:31.869Z,97295.59
2022-12-23T05:56:59.850Z,97287.22
2022-12-23T05:59:31.342Z,97298.00
2022-12-23T06:02:00.068Z,97303.94
2022-12-23T06:04:29.572Z,97298.81
2022-12-23T06:06:57.578Z,97292.06
2022-12-23T06:09:25.404Z,97288.03
2022-12-23T06:11:53.756Z,97279.44
2022-12-23T06:14:28.314Z,97300.44
2022-12-23T06:16:57.341Z,97296.13
2022-12-23T06:19:26.019Z,97289.13
2022-12-23T06:21:55.279Z,97304.47
2022-12-23T06:24:23.816Z,97296.94
2022-12-23T06:26:56.852Z,97290.19
2022-12-23T06:29:25.673Z,97311.47
2022-12-23T06:31:53.658Z,97312.00
2022-12-23T06:34:21.616Z,97310.38
2022-12-23T06:36:49.754Z,97317.91
2022-12-23T06:39:19.225Z,97316.31
2022-12-23T06:41:47.365Z,97317.38
2022-12-23T06:44:15.573Z,97316.84
2022-12-23T06:46:43.401Z,97322.50
2022-12-23T06:49:13.780Z,97307.69
2022-12-23T06:51:42.503Z,97309.31
2022-12-23T06:54:12.006Z,97322.22
2022-12-23T06:56:41.639Z,97317.09
2022-12-23T06:59:10.295Z,97316.56
2022-12-23T07:01:38.673Z,97318.44
2022-12-23T07:04:06.651Z,97323.81
2022-12-23T07:06:35.074Z,97327.59
2022-12-23T07:09:02.893Z,97328.94
2022-12-23T07:11:30.925Z,97333.50
2022-12-23T07:14:02.713Z,97342.66
2022-12-23T07:16:30.758Z,97341.84
2022-12-23T07:18:58.634Z,97339.44
2022-12-23T07:21:29.811Z,97350.72
2022-12-23T07:23:58.088Z,97347.75
2022-12-23T07:26:25.984Z,97349.38
2022-12-23T07:28:54.361Z,97345.88
2022-12-23T07:31:23.937Z,97337.00
2022-12-23T07:33:51.931Z,97333.50
2022-12-23T07:36:20.670Z,97337.25
2022-12-23T07:38:50.615Z,97338.06
2022-12-23T07:41:18.776Z,97321.91
2022-12-23T07:43:47.422Z,97328.38
2022-12-23T07:46:15.325Z,97335.94
2022-12-23T07:48:44.978Z,97335.66
2022-12-23T07:51:13.245Z,97334.84
2022-12-23T07:53:41.277Z,97338.06
2022-12-23T07:56:09.588Z,97330.00
2022-12-23T07:58:38.136Z,97330.00
2022-12-23T08:01:08.913Z,97331.34
2022-12-23T08:03:38.056Z,97324.34
2022-12-23T08:06:12.457Z,97334.84
2022-12-23T08:08:43.873Z,97347.50
2022-12-23T08:11:13.929Z,97356.91
2022-12-23T08:13:43.472Z,97359.88
2022-12-23T08:16:13.177Z,97365.00
2022-12-23T08:18:43.351Z,97370.91
2022-12-23T08:21:15.540Z,97372.00
2022-12-23T08:23:44.081Z,97371.72
2022-12-23T08:26:13.699Z,97365.53
2022-12-23T08:28:43.853Z,97379.00
2022-12-23T08:31:14.473Z,97372.53
2022-12-23T08:33:44.822Z,97358.28
2022-12-23T08:36:22.511Z,97361.78
2022-12-23T08:38:54.462Z,97361.78
2022-12-23T08:41:24.316Z,97362.31
2022-12-23T08:43:52.712Z,97353.72
2022-12-23T08:46:21.260Z,97355.06
2022-12-23T08:48:51.564Z,97356.16
2022-12-23T08:51:25.122Z,97350.78
2022-12-23T08:54:00.178Z,97345.66
2022-12-23T08:56:31.373Z,97347.53
2022-12-23T08:58:59.646Z,97345.94
2022-12-23T09:01:31.799Z,97341.63
2022-12-23T09:04:02.628Z,97348.34
2022-12-23T09:06:35.163Z,97351.84
2022-12-23T09:09:03.158Z,97354.28
2022-12-23T09:11:31.506Z,97362.34
2022-12-23T09:14:01.715Z,97365.59
2022-12-23T09:16:30.731Z,97373.38
2022-12-23T09:18:59.867Z,97370.13
2022-12-23T09:21:28.915Z,97366.09
2022-12-23T09:23:58.352Z,97359.09
2022-12-23T09:26:28.477Z,97367.72
2022-12-23T09:28:57.522Z,97368.53
2022-12-23T09:31:30.830Z,97360.97
2022-12-23T09:34:02.796Z,97350.47
2022-12-23T09:36:30.957Z,97354.50
2022-12-23T09:39:00.620Z,97344.53
2022-12-23T09:41:42.970Z,97352.34
2022-12-23T09:44:25.307Z,97344.53
2022-12-23T09:46:57.927Z,97349.66
2022-12-23T09:49:25.838Z,97344.53
2022-12-23T09:52:01.624Z,97336.44
2022-12-23T09:54:36.382Z,97338.59
2022-12-23T09:57:13.133Z,97336.97
2022-12-23T09:59:59.626Z,97323.78
2022-12-23T10:02:40.232Z,97319.19
2022-12-23T10:05:20.828Z,97319.47
2022-12-23T10:07:51.861Z,97325.38
2022-12-23T10:10:30.277Z,97322.69
2022-12-23T10:13:01.004Z,97307.84
2022-12-23T10:15:33.915Z,97319.16
2022-12-23T10:18:07.056Z,97314.56
2022-12-23T10:20:42.951Z,97303.00
2022-12-23T10:23:19.242Z,97304.88
2022-12-23T10:25:52.944Z,97300.00
2022-12-23T10:28:21.489Z,97298.38
2022-12-23T10:33:56.952Z,97297.31
2022-12-23T10:36:30.568Z,97300.53
2022-12-23T10:39:05.795Z,97297.84
2022-12-23T10:41:43.335Z,97297.84
2022-12-23T10:44:54.374Z,97290.03
2022-12-23T10:47:32.354Z,97282.19
2022-12-23T10:50:09.774Z,97282.72
2022-12-23T10:52:42.109Z,97284.34
2022-12-23T10:55:22.026Z,97278.16
2022-12-23T10:57:53.220Z,97281.66
2022-12-23T11:00:24.368Z,97274.38
2022-12-23T11:03:07.923Z,97269.50
2022-12-23T11:05:37.252Z,97264.38
2022-12-23T11:08:05.705Z,97268.97
2022-12-23T11:10:34.702Z,97250.91
2022-12-23T11:13:04.492Z,97259.00
2022-12-23T11:15:34.784Z,97248.22
2022-12-23T11:18:06.016Z,97247.13
2022-12-23T11:20:35.168Z,97247.13
2022-12-23T11:23:05.115Z,97233.94
2022-12-23T11:25:36.348Z,97226.66
2022-12-23T11:28:09.480Z,97222.34
2022-12-23T11:30:55.197Z,97227.44
2022-12-23T11:33:27.564Z,97219.38
2022-12-23T11:36:04.451Z,97217.47
2022-12-23T11:38:33.107Z,97215.56
2022-12-23T11:41:01.231Z,97211.53
2022-12-23T11:43:32.359Z,97194.28
2022-12-23T11:46:26.423Z,97199.38
2022-12-23T11:49:06.916Z,97192.63
2022-12-23T11:51:35.455Z,97194.53
2022-12-23T11:54:03.809Z,97194.81
2022-12-23T11:56:38.064Z,97184.53
2022-12-23T11:59:10.071Z,97179.44
2022-12-23T12:01:39.466Z,97178.56
2022-12-23T12:04:10.385Z,97177.47
2022-12-23T12:06:48.401Z,97169.38
2022-12-23T12:09:23.785Z,97160.81
2022-12-23T12:11:55.837Z,97163.72
2022-12-23T12:14:33.006Z,97150.28
2022-12-23T12:17:07.584Z,97155.63
2022-12-23T12:19:41.814Z,97147.25
2022-12-23T12:22:17.289Z,97148.63
2022-12-23T12:24:51.874Z,97148.88
2022-12-23T12:27:24.539Z,97135.94
2022-12-23T12:30:06.080Z,97132.41
2022-12-23T12:32:47.339Z,97129.19
2022-12-23T12:35:19.503Z,97128.34
2022-12-23T12:37:53.316Z,97118.59
2022-12-23T12:40:32.054Z,97113.22
2022-12-23T12:43:07.145Z,97105.91
2022-12-23T12:45:45.493Z,97112.97
2022-12-23T12:48:31.708Z,97111.63
2022-12-23T12:51:05.713Z,97104.09
2022-12-23T12:53:35.046Z,97107.31
2022-12-23T12:56:11.912Z,97110.59
2022-12-23T12:58:42.014Z,97105.72
2022-12-23T13:01:28.804Z,97092.75
2022-12-23T13:04:30.428Z,97092.22
2022-12-23T13:07:09.889Z,97077.94
2022-12-23T13:09:51.054Z,97070.91
2022-12-23T13:12:27.456Z,97056.88
2022-12-23T13:15:04.447Z,97068.75
2022-12-23T13:17:45.519Z,97058.25
2022-12-23T13:20:25.429Z,97061.47
2022-12-23T13:23:15.143Z,97053.63
2022-12-23T13:25:56.921Z,97060.31
2022-12-23T13:28:35.402Z,97051.06
2022-12-23T13:31:13.014Z,97051.94
2022-12-23T13:33:55.909Z,97049.47
2022-12-23T13:36:38.145Z,97052.16
2022-12-23T13:39:20.623Z,97045.16
2022-12-23T13:41:53.605Z,97038.44
2022-12-23T13:44:22.603Z,97040.53
2022-12-23T13:47:06.409Z,97046.72
2022-12-23T13:49:55.207Z,97053.22
2022-12-23T13:52:34.156Z,97045.41
2022-12-23T13:55:17.064Z,97039.38
2022-12-23T13:57:53.492Z,97030.09
2022-12-23T14:00:28.632Z,97028.25
2022-12-23T14:03:18.262Z,97030.22
2022-12-23T14:05:50.586Z,97022.81
2022-12-23T14:08:36.753Z,97030.34
2022-12-23T14:11:18.246Z,97021.72
2022-12-23T14:14:00.455Z,97020.88
2022-12-23T14:16:52.007Z,97021.44
2022-12-23T14:19:43.987Z,97022.53
2022-12-23T14:22:41.606Z,97027.31
2022-12-23T14:25:41.871Z,97023.03
2022-12-23T14:28:21.457Z,97021.66
2022-12-23T14:30:49.855Z,97026.78
2022-12-23T14:33:25.494Z,97023.84
2022-12-23T14:35:58.581Z,97015.69
2022-12-23T14:38:31.655Z,97011.34
2022-12-23T14:41:18.070Z,97009.38
2022-12-23T14:43:57.511Z,97019.16
2022-12-23T14:46:59.857Z,97034.25
2022-12-23T14:49:49.125Z,97021.84
2022-12-23T14:52:49.614Z,97012.38
2022-12-23T14:55:49.927Z,97016.22
2022-12-23T14:58:40.560Z,97022.72
2022-12-23T15:01:13.791Z,97016.28
2022-12-23T15:03:46.235Z,97008.88
2022-12-23T15:06:20.337Z,97014.03
2022-12-23T15:08:52.159Z,97013.81
2022-12-23T15:11:28.240Z,97017.25
2022-12-23T15:14:00.525Z,97016.97
2022-12-23T15:16:35.098Z,97023.91
2022-12-23T15:19:13.892Z,97026.91
2022-12-23T15:21:43.185Z,97033.97
2022-12-23T15:24:17.833Z,97032.06
2022-12-23T15:27:09.768Z,97030.53
2022-12-23T15:29:44.377Z,97027.56
2022-12-23T15:32:12.912Z,97046.31
2022-12-23T15:34:42.162Z,97053.31
2022-12-23T15:37:12.730Z,97046.47
2022-12-23T15:39:43.804Z,97054.94
2022-12-23T15:42:25.584Z,97059.44
2022-12-23T15:44:55.535Z,97062.47
2022-12-23T15:47:30.749Z,97060.75
2022-12-23T15:49:59.919Z,97066.91
2022-12-23T15:52:30.013Z,97073.13
2022-12-23T15:55:04.248Z,97057.19
2022-12-23T15:57:32.638Z,97063.19
2022-12-23T16:00:02.085Z,97060.25
2022-12-23T16:05:30.732Z,97055.38
2022-12-23T16:08:13.610Z,97061.56
2022-12-23T16:10:42.730Z,97063.69
2022-12-23T16:13:46.761Z,97059.09
2022-12-23T16:16:34.890Z,97049.28
2022-12-23T16:19:03.189Z,97050.59
2022-12-23T16:21:34.434Z,97056.22
2022-12-23T16:24:06.633Z,97047.66
2022-12-23T16:26:41.504Z,97047.09
2022-12-23T16:29:11.910Z,97043.88
2022-12-23T16:31:51.120Z,97042.03
2022-12-23T16:34:23.114Z,97046.81
2022-12-23T16:36:51.219Z,97049.56
2022-12-23T16:39:22.829Z,97041.22
2022-12-23T16:41:52.231Z,97046.91
2022-12-23T16:44:20.754Z,97061.81
2022-12-23T16:46:52.104Z,97049.16
2022-12-23T16:49:26.733Z,97057.06
2022-12-23T16:51:59.310Z,97069.16
2022-12-23T16:54:27.946Z,97067.06
2022-12-23T16:56:55.871Z,97068.63
2022-12-23T16:59:26.141Z,97061.34
2022-12-23T17:02:02.910Z,97059.75
2022-12-23T17:04:31.652Z,97059.44
2022-12-23T17:07:00.152Z,97072.88
2022-12-23T17:09:28.187Z,97069.09
2022-12-23T17:11:56.422Z,97070.19
2022-12-23T17:14:26.829Z,97062.88
2022-12-23T17:16:56.229Z,97070.19
2022-12-23T17:19:28.858Z,97059.97
2022-12-23T17:22:02.468Z,97063.19
2022-12-23T17:24:31.256Z,97061.81
2022-12-23T17:26:59.555Z,97055.31
2022-12-23T17:29:28.418Z,97055.25
2022-12-23T17:31:58.219Z,97063.28
2022-12-23T17:34:26.191Z,97063.06
2022-12-23T17:36:54.811Z,97052.84
2022-12-23T17:39:26.736Z,97046.69
2022-12-23T17:41:55.241Z,97070.41
2022-12-23T17:44:23.559Z,97072.88
2022-12-23T17:46:51.871Z,97076.44
2022-12-23T17:49:24.149Z,97063.38
2022-12-23T17:51:53.300Z,97086.81
2022-12-23T17:54:25.027Z,97111.34
2022-12-23T17:56:53.773Z,97133.56
2022-12-23T17:59:23.133Z,97117.97
2022-12-23T18:01:52.857Z,97102.19
2022-12-23T18:04:22.574Z,97117.38
2022-12-23T18:06:50.730Z,97099.75
2022-12-23T18:09:21.977Z,97119.06
2022-12-23T18:11:50.125Z,97122.13
2022-12-23T18:14:22.621Z,97126.22
2022-12-23T18:16:50.838Z,97116.00
2022-12-23T18:19:20.773Z,97119.53
2022-12-23T18:21:51.243Z,97128.78
2022-12-23T18:24:19.525Z,97127.50
2022-12-23T18:26:47.831Z,97138.28
2022-12-23T18:29:16.873Z,97141.28
2022-12-23T18:31:52.134Z,97138.03
2022-12-23T18:34:22.166Z,97144.78
2022-12-23T18:36:53.935Z,97139.41
2022-12-23T18:39:22.616Z,97130.00
2022-12-23T18:41:50.819Z,97141.88
2022-12-23T18:44:21.181Z,97143.44
2022-12-23T18:46:50.664Z,97144.56
2022-12-23T18:49:18.760Z,97146.19
2022-12-23T18:51:47.107Z,97149.31
2022-12-23T18:54:19.783Z,97151.94
2022-12-23T18:56:49.377Z,97163.13
2022-12-23T18:59:24.308Z,97176.88
2022-12-23T19:01:57.975Z,97183.59
2022-12-23T19:04:26.566Z,97185.16
2022-12-23T19:06:56.168Z,97183.84
2022-12-23T19:09:26.609Z,97193.44
2022-12-23T19:11:54.976Z,97192.41
2022-12-23T19:14:25.254Z,97189.19
2022-12-23T19:16:53.950Z,97193.22
2022-12-23T19:19:23.171Z,97193.78
2022-12-23T19:21:53.478Z,97193.50
2022-12-23T19:24:21.400Z,97195.69
2022-12-23T19:26:50.766Z,97196.47
2022-12-23T19:29:19.179Z,97196.75
2022-12-23T19:31:48.574Z,97210.84
2022-12-23T19:34:16.812Z,97205.66
2022-12-23T19:36:45.476Z,97209.97
2022-12-23T19:39:17.276Z,97204.63
2022-12-23T19:41:45.980Z,97225.19
2022-12-23T19:44:15.401Z,97234.38
2022-12-23T19:46:43.840Z,97241.66
2022-12-23T19:49:17.742Z,97233.41
2022-12-23T19:51:48.830Z,97236.56
2022-12-23T19:54:16.829Z,97232.31
2022-12-23T19:56:45.121Z,97232.06
2022-12-23T19:59:13.864Z,97232.06
2022-12-23T20:01:43.643Z,97237.78
2022-12-23T20:04:12.620Z,97240.72
2022-12-23T20:06:42.860Z,97235.63
2022-12-23T20:09:13.057Z,97233.41
2022-12-23T20:11:43.829Z,97240.13
2022-12-23T20:14:13.165Z,97231.50
2022-12-23T20:16:41.924Z,97233.13
2022-12-23T20:19:12.114Z,97233.97
2022-12-23T20:21:40.124Z,97250.16
2022-12-23T20:24:08.914Z,97259.91
2022-12-23T20:26:37.587Z,97250.78
2022-12-23T20:29:06.613Z,97244.34
2022-12-23T20:31:38.017Z,97247.63
2022-12-23T20:34:07.372Z,97267.88
2022-12-23T20:36:38.318Z,97272.50
2022-12-23T20:39:07.297Z,97277.38
2022-12-23T20:41:35.607Z,97285.75
2022-12-23T20:46:52.037Z,97310.56
2022-12-23T20:49:20.366Z,97318.66
2022-12-23T20:51:49.811Z,97338.59
2022-12-23T20:54:17.795Z,97338.88
2022-12-23T20:56:46.302Z,97337.50
2022-12-23T20:59:14.380Z,97345.81
2022-12-23T21:01:43.184Z,97350.41
2022-12-23T21:04:13.257Z,97350.09
2022-12-23T21:06:41.698Z,97358.22
2022-12-23T21:09:13.610Z,97368.50
2022-12-23T21:11:43.887Z,97376.63
2022-12-23T21:14:12.430Z,97377.97
2022-12-23T21:16:44.504Z,97392.56
2022-12-23T21:19:16.801Z,97381.78
2022-12-23T21:21:45.867Z,97379.09
2022-12-23T21:24:15.678Z,97375.84
2022-12-23T21:26:43.892Z,97373.69
2022-12-23T21:29:12.242Z,97376.16
2022-12-23T21:31:42.535Z,97387.47
2022-12-23T21:34:14.482Z,97373.72
2022-12-23T21:36:43.822Z,97379.16
2022-12-23T21:39:17.264Z,97376.47
2022-12-23T21:41:46.024Z,97361.88
2022-12-23T21:44:15.103Z,97369.19
2022-12-23T21:46:43.665Z,97378.09
2022-12-23T21:49:12.647Z,97363.84
2022-12-23T21:51:41.682Z,97383.25
2022-12-23T21:54:12.409Z,97387.59
2022-12-23T21:56:42.451Z,97395.44
2022-12-23T21:59:15.135Z,97410.25
2022-12-23T22:01:44.157Z,97407.28
2022-12-23T22:04:13.240Z,97416.19
2022-12-23T22:06:45.260Z,97422.66
2022-12-23T22:09:16.200Z,97430.47
2022-12-23T22:11:48.001Z,97439.63
2022-12-23T22:14:18.463Z,97435.88
2022-12-23T22:16:47.253Z,97443.69
2022-12-23T22:19:15.628Z,97438.56
2022-12-23T22:21:43.699Z,97429.94
2022-12-23T22:24:12.786Z,97442.56
2022-12-23T22:26:41.029Z,97435.59
2022-12-23T22:29:12.370Z,97441.00
2022-12-23T22:31:43.208Z,97455.50
2022-12-23T22:34:15.295Z,97446.63
2022-12-23T22:36:43.878Z,97442.03
2022-12-23T22:39:19.962Z,97439.13
2022-12-23T22:41:49.254Z,97436.41
2022-12-23T22:44:19.160Z,97442.88
2022-12-23T22:46:47.656Z,97451.22
2022-12-23T22:49:17.009Z,97452.03
2022-12-23T22:51:45.837Z,97453.13
2022-12-23T22:54:14.221Z,97446.94
2022-12-23T22:56:42.581Z,97450.44
2022-12-23T22:59:23.183Z,97457.97
2022-12-23T23:01:52.750Z,97457.97
2022-12-23T23:04:21.039Z,97459.59
2022-12-23T23:06:49.219Z,97462.28
2022-12-23T23:09:20.686Z,97460.13
2022-12-23T23:11:48.596Z,97458.50
2022-12-23T23:14:17.252Z,97462.28
2022-12-23T23:16:48.021Z,97462.56
2022-12-23T23:19:16.573Z,97449.09
2022-12-23T23:21:45.131Z,97456.09
2022-12-23T23:24:13.861Z,97466.06
2022-12-23T23:26:43.571Z,97463.91
2022-12-23T23:29:12.444Z,97464.16
2022-12-23T23:31:42.916Z,97456.09
2022-12-23T23:34:13.804Z,97464.44
2022-12-23T23:36:42.726Z,97463.63
2022-12-23T23:39:13.444Z,97474.13
2022-12-23T23:41:42.348Z,97471.72
2022-12-23T23:44:11.357Z,97472.50
2022-12-23T23:46:39.577Z,97485.19
2022-12-23T23:49:08.544Z,97488.69
2022-12-23T23:51:38.617Z,97485.19
2022-12-23T23:54:07.323Z,97491.66
2022-12-23T23:56:39.193Z,97494.34
2022-12-23T23:59:09.081Z,97497.84
